Rockerville, South Dakota
Current Conditions -  °F | °C
As of 11:52 AM on Thursday 23 Oct 2014 (Local Time) from KRAP Reporting Station
Clear Clear  
Wind Chill: 63°   Ceiling: Unl
Heat Index: 63°   Visibility: 10mi
Dew Point: 30°   Wind: 6mph
Humidity: 29%   Direction: 140°SE
Pressure: 29.95"   Gusts: NA
Location:  44.0731°N, 103.205°W
Report Text: KRAP 231752Z 14005KT 10SM CLR 17/M01 A2995 RMK AO2 SLP141 T01721011 10172 20022 58012
Loading
Personal Weather Stations






























Interactive Weather Map
Tropical Storm Tracking
New forecast layout! Learn more

10-Day Weather Forecast

Advertisements
Track Severe Weather on mobile